Time;durP1;ratioP1;P1;durP2;ratioP2;P2;SDS_P1;SDS_P2;PMS_P1;PMS_P2;Temp;Humidity;BMP_temperature;BMP_pressure;BME280_temperature;BME280_humidity;BME280_pressure;Samples;Min_cycle;Max_cycle;Signal;HPM_P1;HPM_P2
2023/03/09 00:00:52;;;;;;;59.90;19.05;;;;;;;-1.50;100.00;99338.25;5056881;28;20449;-74
2023/03/09 00:03:17;;;;;;;52.17;18.60;;;;;;;-1.49;100.00;99332.94;5073746;28;20037;-74
2023/03/09 00:05:51;;;;;;;56.88;18.58;;;;;;;-1.48;100.00;99333.78;5056350;28;20025;-74
2023/03/09 00:08:17;;;;;;;57.80;18.90;;;;;;;-1.47;100.00;99332.84;5074339;28;20115;-74
2023/03/09 00:10:42;;;;;;;55.15;19.52;;;;;;;-1.48;100.00;99339.84;5074283;28;20056;-74
2023/03/09 00:13:08;;;;;;;49.90;18.08;;;;;;;-1.48;100.00;99345.06;5073896;28;20059;-73
2023/03/09 00:15:34;;;;;;;51.20;17.00;;;;;;;-1.46;100.00;99358.00;5073523;28;20033;-73
2023/03/09 00:17:59;;;;;;;48.97;17.08;;;;;;;-1.47;100.00;99364.97;5073798;28;20488;-74
2023/03/09 00:20:24;;;;;;;48.58;17.08;;;;;;;-1.47;100.00;99371.97;5073700;28;20033;-73
2023/03/09 00:22:53;;;;;;;48.88;16.65;;;;;;;-1.47;100.00;99385.84;5073629;28;20068;-74
2023/03/09 00:25:21;;;;;;;48.58;16.30;;;;;;;-1.46;100.00;99391.94;5073934;28;20035;-74
2023/03/09 00:27:51;;;;;;;49.42;15.80;;;;;;;-1.45;100.00;99397.06;5074166;28;20035;-73
2023/03/09 00:30:18;;;;;;;46.95;15.90;;;;;;;-1.43;100.00;99391.72;5073896;28;20032;-73
2023/03/09 00:32:44;;;;;;;47.97;15.85;;;;;;;-1.43;100.00;99395.16;5073773;28;20025;-73
2023/03/09 00:35:09;;;;;;;50.58;17.33;;;;;;;-1.43;100.00;99389.13;5055530;28;20036;-74
2023/03/09 00:37:37;;;;;;;53.05;15.77;;;;;;;-1.42;100.00;99370.75;5073451;28;20036;-73
2023/03/09 00:40:06;;;;;;;52.25;17.05;;;;;;;-1.42;100.00;99373.38;5055725;28;20420;-73
2023/03/09 00:42:32;;;;;;;54.67;17.40;;;;;;;-1.42;100.00;99377.72;5055482;28;20036;-73
2023/03/09 00:44:59;;;;;;;56.00;17.48;;;;;;;-1.41;100.00;99384.63;5073327;28;20040;-73
2023/03/09 00:47:24;;;;;;;53.33;18.27;;;;;;;-1.39;100.00;99377.53;5055570;28;20039;-74
2023/03/09 00:49:50;;;;;;;56.30;18.13;;;;;;;-1.39;100.00;99372.31;5073312;28;20036;-73
2023/03/09 00:52:15;;;;;;;52.67;17.50;;;;;;;-1.36;100.00;99373.91;5073646;28;20036;-73
2023/03/09 00:54:41;;;;;;;49.35;17.55;;;;;;;-1.38;100.00;99375.78;5073332;28;20036;-73
2023/03/09 00:57:06;;;;;;;53.88;16.45;;;;;;;-1.37;100.00;99374.81;5055452;28;20040;-73
2023/03/09 00:59:31;;;;;;;46.33;15.70;;;;;;;-1.39;100.00;99374.91;5055212;28;20036;-72
2023/03/09 01:01:57;;;;;;;45.65;16.10;;;;;;;-1.41;100.00;99397.69;5073158;28;20040;-73
2023/03/09 01:04:22;;;;;;;46.25;16.42;;;;;;;-1.40;100.00;99408.94;5073569;28;20029;-73
2023/03/09 01:06:47;;;;;;;39.45;15.18;;;;;;;-1.42;100.00;99401.22;5073576;28;20036;-72
2023/03/09 01:09:13;;;;;;;35.85;13.00;;;;;;;-1.42;100.00;99407.28;5073045;28;20039;-74
2023/03/09 01:11:38;;;;;;;35.65;13.98;;;;;;;-1.42;100.00;99429.91;5073900;28;20040;-75
2023/03/09 01:14:04;;;;;;;34.33;13.05;;;;;;;-1.45;100.00;99438.78;5055540;28;20140;-74
2023/03/09 01:16:29;;;;;;;36.63;12.65;;;;;;;-1.43;100.00;99441.31;5073007;28;20476;-73
2023/03/09 01:18:54;;;;;;;35.08;12.75;;;;;;;-1.44;100.00;99455.28;5072962;28;20032;-74
2023/03/09 01:21:20;;;;;;;38.03;13.43;;;;;;;-1.42;100.00;99453.41;5072924;28;20036;-74
2023/03/09 01:23:45;;;;;;;28.65;11.38;;;;;;;-1.42;100.00;99438.59;5073612;28;20032;-74
2023/03/09 01:26:11;;;;;;;33.33;12.05;;;;;;;-1.43;100.00;99433.47;5073826;28;20035;-73
2023/03/09 01:28:37;;;;;;;33.08;13.32;;;;;;;-1.41;100.00;99434.22;5077467;28;20028;-73
2023/03/09 01:31:11;;;;;;;32.33;13.23;;;;;;;-1.42;100.00;99428.16;5077079;28;20029;-73
2023/03/09 01:33:36;;;;;;;32.83;12.38;;;;;;;-1.42;100.00;99430.78;5077261;28;20021;-73
2023/03/09 01:36:06;;;;;;;37.15;13.30;;;;;;;-1.44;100.00;99432.63;5059049;28;20428;-74
2023/03/09 01:38:32;;;;;;;31.05;12.23;;;;;;;-1.44;100.00;99443.06;5058812;28;20047;-73
2023/03/09 01:40:57;;;;;;;32.85;12.25;;;;;;;-1.44;100.00;99448.28;5077377;28;20028;-73
2023/03/09 01:43:34;;;;;;;32.88;12.88;;;;;;;-1.44;100.00;99452.66;5076793;28;20453;-73
2023/03/09 01:46:24;;;;;;;31.92;11.82;;;;;;;-1.43;100.00;99443.91;5077537;28;20024;-74
2023/03/09 01:49:08;;;;;;;29.35;11.73;;;;;;;-1.44;100.00;99455.28;5077312;28;20115;-74
2023/03/09 01:52:02;;;;;;;27.98;11.60;;;;;;;-1.45;100.00;99462.28;5076465;28;20086;-74
2023/03/09 01:54:35;;;;;;;28.70;11.88;;;;;;;-1.45;100.00;99462.28;5076892;28;20086;-74
2023/03/09 01:57:13;;;;;;;30.20;11.77;;;;;;;-1.44;100.00;99463.09;5077348;28;20032;-74
2023/03/09 01:59:39;;;;;;;23.15;11.05;;;;;;;-1.43;100.00;99446.53;5077030;28;20361;-75
2023/03/09 02:02:06;;;;;;;25.65;10.27;;;;;;;-1.40;100.00;99446.34;5076336;28;20036;-74
2023/03/09 02:04:39;;;;;;;25.98;10.00;;;;;;;-1.40;100.00;99451.56;5076396;28;20032;-73
2023/03/09 02:07:04;;;;;;;23.45;9.50;;;;;;;-1.40;100.00;99450.69;5076686;28;20046;-73
2023/03/09 02:09:41;;;;;;;26.63;10.38;;;;;;;-1.40;100.00;99459.38;5058366;28;20025;-73
2023/03/09 02:12:09;;;;;;;21.02;8.35;;;;;;;-1.39;100.00;99453.19;5076810;28;20036;-73
2023/03/09 02:14:35;;;;;;;22.67;10.00;;;;;;;-1.40;100.00;99438.50;5058112;28;20392;-73
2023/03/09 02:17:00;;;;;;;25.17;9.48;;;;;;;-1.39;100.00;99444.53;5076193;28;20473;-74
2023/03/09 02:19:43;;;;;;;18.58;8.98;;;;;;;-1.40;100.00;99448.94;5076070;28;20039;-73
2023/03/09 02:22:10;;;;;;;19.60;9.13;;;;;;;-1.38;100.00;99467.09;5076382;28;20032;-75
2023/03/09 02:24:54;;;;;;;17.77;7.80;;;;;;;-1.38;100.00;99480.16;5058490;28;20389;-74
2023/03/09 02:27:21;;;;;;;19.13;8.45;;;;;;;-1.39;100.00;99487.13;5075700;28;20093;-76
2023/03/09 02:29:46;;;;;;;18.90;8.25;;;;;;;-1.38;100.00;99496.63;5058007;28;20025;-75
2023/03/09 02:32:12;;;;;;;19.08;8.80;;;;;;;-1.35;100.00;99491.22;5076165;28;20354;-75
2023/03/09 02:34:38;;;;;;;21.88;8.93;;;;;;;-1.35;100.00;99483.41;5076363;28;20032;-73
2023/03/09 02:37:03;;;;;;;17.80;7.63;;;;;;;-1.33;100.00;99463.28;5075889;28;20454;-73
2023/03/09 02:39:32;;;;;;;19.15;8.57;;;;;;;-1.31;100.00;99465.78;5075289;28;20035;-74
2023/03/09 02:41:58;;;;;;;20.02;8.50;;;;;;;-1.31;100.00;99466.63;5057854;28;20031;-73
2023/03/09 02:44:25;;;;;;;17.33;9.05;;;;;;;-1.30;100.00;99477.88;5076414;28;20032;-73
2023/03/09 02:46:51;;;;;;;18.63;8.73;;;;;;;-1.30;100.00;99481.34;5075917;28;20054;-73
2023/03/09 02:49:17;;;;;;;21.67;8.32;;;;;;;-1.29;100.00;99479.56;5075843;28;20128;-73
2023/03/09 02:51:42;;;;;;;19.42;8.05;;;;;;;-1.30;100.00;99476.13;5075579;28;20115;-74
2023/03/09 02:54:08;;;;;;;19.23;8.88;;;;;;;-1.28;100.00;99483.88;5075228;28;20115;-73
2023/03/09 02:56:33;;;;;;;16.35;7.90;;;;;;;-1.29;100.00;99490.00;5075363;28;20051;-75
2023/03/09 02:59:01;;;;;;;17.00;8.30;;;;;;;-1.29;100.00;99500.44;5075440;28;20060;-73
2023/03/09 03:01:26;;;;;;;16.73;8.73;;;;;;;-1.29;100.00;99492.63;5075664;28;20029;-74
2023/03/09 03:03:52;;;;;;;19.00;8.18;;;;;;;-1.28;100.00;99499.53;5075427;28;20024;-74
2023/03/09 03:06:17;;;;;;;17.00;8.02;;;;;;;-1.28;100.00;99499.53;5075385;28;20370;-74
2023/03/09 03:08:42;;;;;;;17.52;7.90;;;;;;;-1.27;100.00;99502.03;5057372;28;20111;-73
2023/03/09 03:11:08;;;;;;;18.10;7.88;;;;;;;-1.27;100.00;99506.41;5075253;28;20060;-74
2023/03/09 03:13:33;;;;;;;18.73;8.23;;;;;;;-1.27;100.00;99515.09;5056985;28;20088;-74
2023/03/09 03:16:00;;;;;;;19.42;7.50;;;;;;;-1.28;100.00;99502.97;5074937;28;20028;-74
2023/03/09 03:18:26;;;;;;;19.02;8.05;;;;;;;-1.27;100.00;99504.66;5075077;28;20036;-73
2023/03/09 03:20:51;;;;;;;19.85;8.40;;;;;;;-1.26;100.00;99508.91;5075043;28;20056;-74
2023/03/09 03:23:17;;;;;;;16.80;8.55;;;;;;;-1.27;100.00;99514.22;5056901;28;20064;-74
2023/03/09 03:25:42;;;;;;;17.90;8.30;;;;;;;-1.26;100.00;99515.91;5075405;28;20040;-74
2023/03/09 03:28:07;;;;;;;18.83;8.00;;;;;;;-1.26;100.00;99526.34;5057233;28;20032;-74
2023/03/09 03:30:33;;;;;;;18.35;8.07;;;;;;;-1.25;100.00;99522.81;5074830;28;20066;-74
2023/03/09 03:32:59;;;;;;;18.73;8.25;;;;;;;-1.25;100.00;99515.00;5074503;28;20032;-74
2023/03/09 03:35:24;;;;;;;18.33;8.35;;;;;;;-1.26;100.00;99514.13;5074819;28;20162;-74
2023/03/09 03:37:49;;;;;;;19.85;8.57;;;;;;;-1.25;100.00;99515.00;5074896;28;20021;-75
2023/03/09 03:40:15;;;;;;;17.33;8.43;;;;;;;-1.26;100.00;99516.75;5074390;28;20036;-75
2023/03/09 03:42:40;;;;;;;15.98;8.60;;;;;;;-1.28;100.00;99531.66;5074956;28;20043;-75
2023/03/09 03:45:06;;;;;;;19.83;8.18;;;;;;;-1.27;100.00;99537.72;5075085;28;20086;-75
2023/03/09 03:47:32;;;;;;;16.52;7.82;;;;;;;-1.28;100.00;99547.34;5056588;28;20439;-75
2023/03/09 03:49:57;;;;;;;14.95;8.00;;;;;;;-1.28;100.00;99559.56;5073490;28;20032;-74
2023/03/09 03:52:23;;;;;;;16.05;8.40;;;;;;;-1.27;100.00;99571.66;5074889;28;20119;-74
2023/03/09 03:54:49;;;;;;;19.48;8.32;;;;;;;-1.26;100.00;99579.38;5074291;28;20028;-75
2023/03/09 03:57:14;;;;;;;19.95;8.82;;;;;;;-1.25;100.00;99580.25;5074106;28;20036;-76
2023/03/09 03:59:39;;;;;;;19.35;9.07;;;;;;;-1.23;100.00;99588.81;5056367;28;20028;-76
2023/03/09 04:02:05;;;;;;;19.08;8.43;;;;;;;-1.22;100.00;99589.63;5074182;28;20067;-75
2023/03/09 04:04:30;;;;;;;17.50;7.90;;;;;;;-1.21;100.00;99588.72;5074831;28;20033;-75
2023/03/09 04:06:55;;;;;;;24.33;9.27;;;;;;;-1.22;100.00;99587.03;5074362;28;20028;-75
2023/03/09 04:09:21;;;;;;;22.25;8.30;;;;;;;-1.20;100.00;99593.00;5074023;28;20029;-74
2023/03/09 04:11:46;;;;;;;19.13;8.68;;;;;;;-1.21;100.00;99592.16;5074233;28;20417;-74
2023/03/09 04:14:11;;;;;;;17.40;8.32;;;;;;;-1.21;100.00;99605.19;5074353;28;20048;-74
2023/03/09 04:16:38;;;;;;;20.42;8.70;;;;;;;-1.21;100.00;99599.16;5074003;28;20075;-73
2023/03/09 04:19:04;;;;;;;24.55;10.05;;;;;;;-1.18;100.00;99598.97;5073894;28;20082;-74
2023/03/09 04:21:29;;;;;;;25.73;9.40;;;;;;;-1.18;100.00;99597.22;5074572;28;20033;-74
2023/03/09 04:23:54;;;;;;;22.00;9.63;;;;;;;-1.17;100.00;99598.88;5073396;28;20107;-74
2023/03/09 04:26:20;;;;;;;23.60;9.63;;;;;;;-1.18;100.00;99606.78;5073763;28;20115;-74
2023/03/09 04:28:45;;;;;;;20.20;8.90;;;;;;;-1.16;100.00;99610.16;5073656;28;20033;-74
2023/03/09 04:31:11;;;;;;;19.05;9.40;;;;;;;-1.16;100.00;99618.00;5073655;28;20469;-74
2023/03/09 04:33:36;;;;;;;19.00;9.30;;;;;;;-1.15;100.00;99624.88;5055600;28;20044;-75
2023/03/09 04:36:02;;;;;;;21.15;9.32;;;;;;;-1.16;100.00;99631.06;5074085;28;20033;-74
2023/03/09 04:38:27;;;;;;;16.45;8.20;;;;;;;-1.17;100.00;99630.19;5073576;28;20036;-74
2023/03/09 04:40:53;;;;;;;24.15;9.65;;;;;;;-1.19;100.00;99626.84;5056131;28;20465;-74
2023/03/09 04:43:18;;;;;;;19.25;9.15;;;;;;;-1.18;100.00;99625.06;5055556;28;20492;-75
2023/03/09 04:45:44;;;;;;;18.75;8.98;;;;;;;-1.19;100.00;99634.69;5073277;28;20037;-75
2023/03/09 04:48:09;;;;;;;21.85;9.57;;;;;;;-1.20;100.00;99642.59;5074176;28;20061;-75
2023/03/09 04:50:34;;;;;;;23.17;9.55;;;;;;;-1.21;100.00;99646.97;5055543;28;20392;-75
2023/03/09 04:53:00;;;;;;;17.38;8.77;;;;;;;-1.21;100.00;99633.09;5073068;28;20481;-75
2023/03/09 04:55:25;;;;;;;18.98;10.05;;;;;;;-1.23;100.00;99625.34;5073817;28;20408;-74
2023/03/09 04:57:51;;;;;;;22.38;9.15;;;;;;;-1.23;100.00;99620.13;5073295;28;20119;-74
2023/03/09 05:00:16;;;;;;;23.20;10.13;;;;;;;-1.23;100.00;99614.09;5073346;28;20040;-74
2023/03/09 05:02:42;;;;;;;22.30;10.20;;;;;;;-1.26;100.00;99623.75;5072793;28;20058;-74
2023/03/09 05:05:09;;;;;;;20.92;9.77;;;;;;;-1.28;100.00;99622.19;5055882;28;20369;-74
2023/03/09 05:07:35;;;;;;;23.73;10.82;;;;;;;-1.28;100.00;99628.25;5073246;28;20059;-74
2023/03/09 05:10:01;;;;;;;20.40;9.60;;;;;;;-1.29;100.00;99647.44;5073720;28;20480;-73
2023/03/09 05:12:31;;;;;;;22.75;9.98;;;;;;;-1.31;100.00;99648.47;5072945;28;20029;-73
2023/03/09 05:14:57;;;;;;;27.73;11.00;;;;;;;-1.31;100.00;99644.09;5073580;28;20059;-75
2023/03/09 05:17:23;;;;;;;24.05;10.95;;;;;;;-1.31;100.00;99630.22;5073109;28;20032;-73
2023/03/09 05:19:48;;;;;;;21.75;10.70;;;;;;;-1.31;100.00;99633.66;5073023;28;20029;-74
2023/03/09 05:22:14;;;;;;;21.52;10.98;;;;;;;-1.33;100.00;99647.72;5055060;28;20043;-73
2023/03/09 05:24:39;;;;;;;20.65;10.75;;;;;;;-1.36;100.00;99659.16;5072812;28;20469;-74
2023/03/09 05:27:05;;;;;;;27.25;10.88;;;;;;;-1.35;100.00;99668.69;5055405;28;20040;-73
2023/03/09 05:29:30;;;;;;;28.58;11.73;;;;;;;-1.36;100.00;99668.78;5072833;28;20047;-74
2023/03/09 05:31:55;;;;;;;23.98;10.98;;;;;;;-1.34;100.00;99675.59;5073255;28;20033;-72
2023/03/09 05:34:21;;;;;;;27.58;12.13;;;;;;;-1.35;100.00;99680.91;5073272;28;20106;-74
2023/03/09 05:36:46;;;;;;;25.95;11.25;;;;;;;-1.34;100.00;99683.44;5055562;28;20029;-73
2023/03/09 05:39:11;;;;;;;25.48;11.38;;;;;;;-1.34;100.00;99691.25;5072763;28;20323;-73
2023/03/09 05:41:39;;;;;;;29.98;12.00;;;;;;;-1.31;100.00;99692.84;5072853;28;20056;-73
2023/03/09 05:44:04;;;;;;;27.58;12.30;;;;;;;-1.31;100.00;99682.41;5054826;28;20032;-74
2023/03/09 05:46:30;;;;;;;30.08;13.90;;;;;;;-1.32;100.00;99681.56;5054944;28;20107;-74
2023/03/09 05:48:55;;;;;;;28.92;13.00;;;;;;;-1.31;100.00;99672.78;5072751;28;20539;-74
2023/03/09 05:51:20;;;;;;;31.67;13.73;;;;;;;-1.32;100.00;99675.50;5073141;28;20097;-75
2023/03/09 05:53:46;;;;;;;33.53;14.70;;;;;;;-1.32;100.00;99680.72;5072754;28;20025;-74
2023/03/09 05:56:12;;;;;;;36.75;13.98;;;;;;;-1.33;100.00;99682.50;5072566;28;20068;-74
2023/03/09 05:58:38;;;;;;;33.58;13.90;;;;;;;-1.32;100.00;99688.56;5072394;28;20087;-74
2023/03/09 06:01:03;;;;;;;31.88;13.85;;;;;;;-1.31;100.00;99701.50;5072743;28;20491;-74
2023/03/09 06:03:28;;;;;;;36.72;14.82;;;;;;;-1.31;100.00;99708.50;5055093;28;20033;-74
2023/03/09 06:06:05;;;;;;;36.78;14.35;;;;;;;-1.31;100.00;99703.28;5072298;28;20039;-74
2023/03/09 06:08:31;;;;;;;36.40;14.55;;;;;;;-1.31;100.00;99701.50;5073053;28;20059;-74
2023/03/09 06:10:58;;;;;;;41.63;16.05;;;;;;;-1.30;100.00;99704.94;5072582;28;20028;-74
2023/03/09 06:13:24;;;;;;;37.75;16.23;;;;;;;-1.29;100.00;99711.84;5073016;28;20135;-74
2023/03/09 06:15:49;;;;;;;38.58;16.00;;;;;;;-1.32;100.00;99712.03;5076296;28;20099;-75
2023/03/09 06:18:15;;;;;;;36.03;14.98;;;;;;;-1.32;100.00;99722.47;5076866;28;20029;-74
2023/03/09 06:20:40;;;;;;;37.53;15.70;;;;;;;-1.35;100.00;99727.88;5076461;28;20037;-74
2023/03/09 06:23:05;;;;;;;37.70;15.95;;;;;;;-1.37;100.00;99734.94;5075859;28;20075;-74
2023/03/09 06:25:31;;;;;;;37.90;15.82;;;;;;;-1.40;100.00;99733.38;5076193;28;20048;-74
2023/03/09 06:27:56;;;;;;;38.67;15.60;;;;;;;-1.43;100.00;99741.38;5076312;28;20423;-74
2023/03/09 06:30:22;;;;;;;35.85;14.82;;;;;;;-1.46;100.00;99759.84;5058813;28;20044;-74
2023/03/09 06:32:47;;;;;;;37.67;15.48;;;;;;;-1.46;100.00;99762.44;5075966;28;20062;-74
2023/03/09 06:35:13;;;;;;;35.72;15.50;;;;;;;-1.46;100.00;99765.03;5076030;28;20460;-74
2023/03/09 06:37:38;;;;;;;44.78;16.88;;;;;;;-1.42;100.00;99767.38;5075608;28;20059;-74
2023/03/09 06:40:04;;;;;;;40.30;17.33;;;;;;;-1.38;100.00;99759.38;5057344;28;20552;-74
2023/03/09 06:42:30;;;;;;;40.47;16.25;;;;;;;-1.33;100.00;99767.78;5076302;28;20033;-73
2023/03/09 06:44:55;;;;;;;39.17;15.82;;;;;;;-1.29;100.00;99769.28;5075534;28;20449;-74
2023/03/09 06:47:24;;;;;;;44.88;17.92;;;;;;;-1.26;100.00;99775.16;5075534;28;20032;-74
2023/03/09 06:49:52;;;;;;;37.78;16.60;;;;;;;-1.20;100.00;99771.34;5075328;28;20037;-75
2023/03/09 06:52:18;;;;;;;44.97;16.63;;;;;;;-1.15;100.00;99779.75;5075014;28;20032;-73
2023/03/09 06:54:43;;;;;;;41.88;17.00;;;;;;;-1.11;100.00;99793.47;5075427;28;20062;-72
2023/03/09 06:57:10;;;;;;;41.47;17.08;;;;;;;-1.09;100.00;99788.97;5075010;28;20058;-74
2023/03/09 06:59:35;;;;;;;42.67;16.55;;;;;;;-1.05;100.00;99797.50;5075142;28;20461;-74
2023/03/09 07:02:00;;;;;;;37.13;15.63;;;;;;;-1.01;100.00;99789.38;5074657;28;20046;-75
2023/03/09 07:04:26;;;;;;;41.47;18.98;;;;;;;-0.94;100.00;99801.16;5074969;28;20472;-74
2023/03/09 07:06:51;;;;;;;40.78;17.67;;;;;;;-0.90;100.00;99800.03;5075426;28;20044;-73
2023/03/09 07:09:16;;;;;;;40.88;17.05;;;;;;;-0.86;100.00;99807.69;5075231;28;20070;-73
2023/03/09 07:11:42;;;;;;;41.17;16.42;;;;;;;-0.84;100.00;99811.03;5075335;28;20025;-73
2023/03/09 07:14:08;;;;;;;39.90;17.13;;;;;;;-0.82;100.00;99822.22;5074989;28;20098;-73
2023/03/09 07:16:33;;;;;;;35.60;16.00;;;;;;;-0.81;100.00;99829.97;5041007;28;20032;-73
2023/03/09 07:18:59;;;;;;;38.67;15.95;;;;;;;-0.80;100.00;99823.81;5075457;28;20461;-73
2023/03/09 07:21:24;;;;;;;34.78;16.02;;;;;;;-0.77;100.00;99831.47;5074790;28;20032;-73
2023/03/09 07:23:49;;;;;;;37.05;16.27;;;;;;;-0.74;100.00;99840.91;5057034;28;20078;-73
2023/03/09 07:26:15;;;;;;;38.40;16.90;;;;;;;-0.75;100.00;99841.84;5075007;28;20028;-73
2023/03/09 07:28:40;;;;;;;40.72;16.33;;;;;;;-0.75;100.00;99847.91;5075034;28;20419;-73
2023/03/09 07:31:08;;;;;;;37.33;16.15;;;;;;;-0.74;100.00;99849.59;5074927;28;20108;-73
2023/03/09 07:33:33;;;;;;;36.25;16.38;;;;;;;-0.64;100.00;99859.47;5075237;28;20530;-73
2023/03/09 07:36:02;;;;;;;35.45;16.02;;;;;;;-0.50;100.00;99858.69;5075643;28;20056;-73
2023/03/09 07:38:28;;;;;;;35.20;15.73;;;;;;;-0.34;100.00;99850.72;5074578;28;20032;-72
2023/03/09 07:40:53;;;;;;;34.03;16.48;;;;;;;-0.25;100.00;99866.69;5056905;28;20039;-74
2023/03/09 07:43:18;;;;;;;36.20;15.45;;;;;;;-0.22;100.00;99866.50;5040093;28;20086;-73
2023/03/09 07:45:44;;;;;;;37.10;17.08;;;;;;;-0.15;100.00;99859.16;5074724;28;20067;-73
2023/03/09 07:48:11;;;;;;;31.17;15.65;;;;;;;-0.10;100.00;99859.69;5057048;28;20406;-73
2023/03/09 07:50:36;;;;;;;34.70;15.48;;;;;;;-0.06;100.00;99855.09;5074809;28;20138;-75
2023/03/09 07:53:02;;;;;;;35.72;15.93;;;;;;;0.03;100.00;99851.06;5074458;28;20123;-74
2023/03/09 07:55:29;;;;;;;33.67;17.00;;;;;;;0.11;100.00;99864.53;5056696;28;20033;-73
2023/03/09 07:57:54;;;;;;;35.10;15.80;;;;;;;0.07;100.00;99874.31;5056611;28;20116;-74
2023/03/09 08:00:22;;;;;;;31.33;14.85;;;;;;;0.12;100.00;99879.28;5074834;28;20365;-73
2023/03/09 08:02:48;;;;;;;32.05;15.52;;;;;;;0.11;100.00;99878.44;5074356;28;20032;-74
2023/03/09 08:05:15;;;;;;;29.63;16.38;;;;;;;0.13;100.00;99860.03;5074201;28;20124;-74
2023/03/09 08:07:42;;;;;;;30.38;15.95;;;;;;;0.26;100.00;99855.72;5074243;28;20033;-74
2023/03/09 08:10:08;;;;;;;30.65;15.20;;;;;;;0.39;100.00;99860.16;5074060;28;20040;-74
2023/03/09 08:12:33;;;;;;;28.98;15.30;;;;;;;0.49;100.00;99874.34;5039629;28;20028;-73
2023/03/09 08:14:59;;;;;;;27.20;15.27;;;;;;;0.48;100.00;99875.28;5074711;28;20377;-74
2023/03/09 08:17:24;;;;;;;23.42;13.98;;;;;;;0.55;100.00;99884.41;5073927;28;20111;-74
2023/03/09 08:19:50;;;;;;;25.48;13.98;;;;;;;0.56;100.00;99883.47;5073979;28;20052;-74
2023/03/09 08:22:16;;;;;;;26.42;14.32;;;;;;;0.59;100.00;99887.69;5073928;28;20032;-74
2023/03/09 08:24:42;;;;;;;26.95;14.60;;;;;;;0.57;100.00;99893.03;5073910;28;20164;-74
2023/03/09 08:27:07;;;;;;;28.60;15.43;;;;;;;0.63;100.00;99902.28;5074121;28;20502;-74
2023/03/09 08:29:33;;;;;;;24.02;13.88;;;;;;;0.67;100.00;99909.81;5073730;28;20024;-73
2023/03/09 08:31:58;;;;;;;24.30;14.25;;;;;;;0.73;100.00;99913.81;5073726;28;20041;-74
2023/03/09 08:34:24;;;;;;;27.40;14.05;;;;;;;0.82;100.00;99896.66;5073623;28;20109;-74
2023/03/09 08:36:49;;;;;;;27.02;14.55;;;;;;;0.87;100.00;99902.47;5073081;28;20032;-74
2023/03/09 08:39:15;;;;;;;29.38;14.55;;;;;;;0.97;100.00;99918.41;5055762;28;20032;-74
2023/03/09 08:41:40;;;;;;;23.40;13.90;;;;;;;1.07;100.00;99922.09;5073283;28;20064;-73
2023/03/09 08:44:06;;;;;;;25.42;13.70;;;;;;;1.14;100.00;99925.19;5073916;28;20025;-74
2023/03/09 08:46:31;;;;;;;26.42;14.35;;;;;;;1.25;100.00;99935.78;5073409;28;20072;-74
2023/03/09 08:48:56;;;;;;;23.83;13.15;;;;;;;1.32;100.00;99920.50;5073437;28;20075;-73
2023/03/09 08:51:22;;;;;;;23.90;13.98;;;;;;;1.36;100.00;99909.69;5073708;28;20111;-74
2023/03/09 08:53:48;;;;;;;23.00;13.60;;;;;;;1.39;100.00;99930.47;5073463;28;20040;-74
2023/03/09 08:56:14;;;;;;;24.58;13.65;;;;;;;1.53;100.00;99937.41;5073380;28;20425;-74
2023/03/09 08:58:40;;;;;;;22.42;13.65;;;;;;;1.56;100.00;99934.56;5073440;28;20091;-74
2023/03/09 09:01:08;;;;;;;22.92;14.23;;;;;;;1.62;100.00;99937.72;5073315;28;20033;-74
2023/03/09 09:03:34;;;;;;;21.63;13.38;;;;;;;1.63;100.00;99931.53;5073118;28;20028;-74
2023/03/09 09:06:10;;;;;;;23.30;13.32;;;;;;;1.71;100.00;99932.69;5056078;28;20369;-74
2023/03/09 09:08:35;;;;;;;22.02;12.73;;;;;;;1.71;100.00;99934.47;5055574;28;20451;-74
2023/03/09 09:11:09;;;;;;;24.52;13.18;;;;;;;1.70;100.00;99924.94;5055283;28;20116;-74
2023/03/09 09:13:37;;;;;;;25.20;13.88;;;;;;;1.72;100.00;99931.75;5072922;28;20058;-74
2023/03/09 09:16:05;;;;;;;24.88;14.77;;;;;;;1.71;100.00;99931.84;5073086;28;20119;-74
2023/03/09 09:18:31;;;;;;;25.85;16.02;;;;;;;1.62;100.00;99925.44;5073085;28;20125;-74
2023/03/09 09:20:57;;;;;;;24.88;14.07;;;;;;;1.59;100.00;99928.28;5054966;28;20394;-74
2023/03/09 09:23:23;;;;;;;19.80;12.85;;;;;;;1.55;100.00;99955.66;5055458;28;20037;-74
2023/03/09 09:25:56;;;;;;;20.92;13.07;;;;;;;1.52;100.00;99958.47;5073783;28;20039;-74
2023/03/09 09:28:22;;;;;;;27.23;14.00;;;;;;;1.57;100.00;99967.72;5073731;28;20346;-74
2023/03/09 09:30:58;;;;;;;21.70;13.25;;;;;;;1.55;100.00;99958.25;5073130;28;20028;-74
2023/03/09 09:33:26;;;;;;;25.95;13.95;;;;;;;1.60;100.00;99964.06;5073433;28;20041;-74
2023/03/09 09:36:01;;;;;;;21.33;13.45;;;;;;;1.66;100.00;99957.56;5054956;28;20060;-74
2023/03/09 09:38:29;;;;;;;23.50;13.10;;;;;;;1.60;100.00;99966.69;5073035;28;20032;-74
2023/03/09 09:40:57;;;;;;;23.40;13.68;;;;;;;1.67;100.00;99970.56;5072979;28;20250;-73
2023/03/09 09:43:23;;;;;;;25.67;14.40;;;;;;;1.74;100.00;99965.75;5072672;28;20028;-73
2023/03/09 09:45:53;;;;;;;24.30;14.25;;;;;;;1.77;100.00;99962.91;5072787;28;20115;-70
2023/03/09 09:48:19;;;;;;;24.33;13.52;;;;;;;1.77;100.00;99960.28;5073157;28;20461;-71
2023/03/09 09:50:49;;;;;;;22.65;13.45;;;;;;;1.77;100.00;99958.50;5076785;28;20035;-71
2023/03/09 09:53:44;;;;;;;22.73;14.13;;;;;;;1.77;100.00;99949.78;5076950;28;20039;-72
2023/03/09 09:56:15;;;;;;;24.33;14.23;;;;;;;1.65;100.00;99943.59;5076906;28;20029;-72
2023/03/09 09:58:56;;;;;;;24.27;14.27;;;;;;;1.72;100.00;99939.63;5077126;28;20036;-71
2023/03/09 10:01:33;;;;;;;23.92;13.70;;;;;;;1.72;100.00;99937.00;5076212;28;20078;-71
2023/03/09 10:04:02;;;;;;;26.58;14.02;;;;;;;1.77;100.00;99936.69;5076456;28;20021;-71
2023/03/09 10:06:28;;;;;;;29.00;15.20;;;;;;;1.81;100.00;99946.03;5076348;28;20038;-70
2023/03/09 10:09:11;;;;;;;26.13;14.35;;;;;;;1.87;100.00;99940.34;5076941;28;20036;-70
2023/03/09 10:11:43;;;;;;;23.90;13.57;;;;;;;1.89;100.00;99927.13;5076035;28;20167;-69
2023/03/09 10:14:28;;;;;;;21.20;13.18;;;;;;;1.85;100.00;99918.66;5076005;28;20519;-70
2023/03/09 10:17:06;;;;;;;22.58;13.93;;;;;;;1.85;100.00;99926.53;5076461;28;20069;-70
2023/03/09 10:19:34;;;;;;;23.10;13.48;;;;;;;1.83;100.00;99931.00;5076092;28;20099;-69
2023/03/09 10:22:06;;;;;;;22.98;14.45;;;;;;;1.84;100.00;99937.13;5075967;28;20070;-68
2023/03/09 10:24:43;;;;;;;24.33;15.07;;;;;;;1.88;100.00;99944.66;5075871;28;20028;-70
2023/03/09 10:27:18;;;;;;;22.30;13.65;;;;;;;1.89;100.00;99935.84;5076145;28;20035;-69
2023/03/09 10:30:05;;;;;;;25.00;14.52;;;;;;;1.97;100.00;99944.97;5058224;28;20346;-69
2023/03/09 10:32:40;;;;;;;26.75;13.95;;;;;;;2.01;100.00;99949.06;5076122;28;20032;-69
2023/03/09 10:35:17;;;;;;;25.10;14.60;;;;;;;2.09;100.00;99939.72;5076155;28;20107;-73
2023/03/09 10:37:46;;;;;;;25.17;14.68;;;;;;;2.19;100.00;99945.16;5075773;28;20069;-74
2023/03/09 10:40:20;;;;;;;25.60;14.05;;;;;;;2.27;100.00;99947.25;5057627;28;20123;-74
2023/03/09 10:42:45;;;;;;;25.20;14.50;;;;;;;2.30;100.00;99952.28;5076423;28;20031;-76
2023/03/09 10:45:31;;;;;;;24.40;14.48;;;;;;;2.32;100.00;99950.38;5075538;28;20122;-77
2023/03/09 10:48:06;;;;;;;22.38;13.98;;;;;;;2.31;100.00;99955.75;5076280;28;20036;-77
2023/03/09 10:50:39;;;;;;;24.15;14.30;;;;;;;2.24;100.00;99960.56;5076127;28;20052;-75
2023/03/09 10:53:23;;;;;;;22.90;14.68;;;;;;;2.21;100.00;99963.41;5076002;28;20372;-76
2023/03/09 10:55:50;;;;;;;25.13;15.15;;;;;;;2.14;100.00;99964.81;5075952;28;20050;-77
2023/03/09 10:58:16;;;;;;;27.40;15.48;;;;;;;2.16;100.00;99961.13;5075627;28;20465;-75
2023/03/09 11:01:26;;;;;;;26.42;15.55;;;;;;;2.20;100.00;99962.59;5074798;28;20040;-74
2023/03/09 11:03:51;;;;;;;27.85;15.30;;;;;;;2.19;100.00;99965.31;5013501;28;20553;-77
2023/03/09 11:06:32;;;;;;;27.52;15.35;;;;;;;2.09;100.00;99959.84;5013916;28;20034;-77
2023/03/09 11:09:04;;;;;;;26.70;15.10;;;;;;;2.05;100.00;99961.88;5051347;28;20040;-75
2023/03/09 11:11:30;;;;;;;28.90;16.25;;;;;;;2.01;100.00;99960.38;5074904;28;20021;-77
2023/03/09 11:13:55;;;;;;;31.10;16.42;;;;;;;2.02;100.00;99958.63;5057184;28;20048;-77
2023/03/09 11:16:21;;;;;;;28.67;15.82;;;;;;;1.95;100.00;99960.81;5076014;28;20035;-78